Time;durP1;ratioP1;P1;durP2;ratioP2;P2;SDS_P1;SDS_P2;PMS_P1;PMS_P2;Temp;Humidity;BMP_temperature;BMP_pressure;BME280_temperature;BME280_humidity;BME280_pressure;Samples;Min_cycle;Max_cycle;Signal;HPM_P1;HPM_P2
2023/05/09 00:01:24;;;;;;;29.70;20.97;;;14.60;99.90;;;;;;5037297;28;20474;-73
2023/05/09 00:03:50;;;;;;;30.40;20.40;;;14.60;99.90;;;;;;5031567;28;20493;-74
2023/05/09 00:06:18;;;;;;;31.80;21.77;;;14.60;99.90;;;;;;5047017;28;20480;-74
2023/05/09 00:08:44;;;;;;;31.03;21.27;;;14.60;99.90;;;;;;5042930;28;20480;-73
2023/05/09 00:11:12;;;;;;;32.07;21.17;;;14.70;99.90;;;;;;5031496;28;20503;-74
2023/05/09 00:13:40;;;;;;;29.07;21.97;;;14.70;99.90;;;;;;5031604;28;20453;-74
2023/05/09 00:16:08;;;;;;;29.87;22.33;;;14.70;99.90;;;;;;5031260;28;20461;-73
2023/05/09 00:18:35;;;;;;;32.07;21.97;;;14.70;99.90;;;;;;5039295;28;20552;-73
2023/05/09 00:21:02;;;;;;;29.67;21.87;;;14.70;99.90;;;;;;5034342;28;20507;-74
2023/05/09 00:23:29;;;;;;;29.67;22.07;;;14.60;99.90;;;;;;5031327;28;20457;-74
2023/05/09 00:25:56;;;;;;;30.90;21.73;;;14.70;99.90;;;;;;5031007;28;20436;-73
2023/05/09 00:28:24;;;;;;;29.77;22.47;;;14.70;99.90;;;;;;5043110;28;20461;-73
2023/05/09 00:30:50;;;;;;;29.70;22.07;;;14.60;99.90;;;;;;5034669;28;20481;-74
2023/05/09 00:33:17;;;;;;;31.87;22.97;;;14.70;99.90;;;;;;5031217;28;20453;-73
2023/05/09 00:35:44;;;;;;;30.07;22.30;;;14.60;99.90;;;;;;5042506;28;20940;-73
2023/05/09 00:38:10;;;;;;;28.50;22.47;;;14.70;99.90;;;;;;5039195;28;20485;-74
2023/05/09 00:40:37;;;;;;;32.77;24.93;;;14.70;99.90;;;;;;5035792;28;21252;-73
2023/05/09 00:43:04;;;;;;;35.53;24.37;;;14.70;99.90;;;;;;5035467;28;20508;-74
2023/05/09 00:45:32;;;;;;;34.00;24.37;;;14.70;99.90;;;;;;5038881;28;20458;-74
2023/05/09 00:47:58;;;;;;;38.07;24.63;;;14.60;99.90;;;;;;5030764;28;20946;-74
2023/05/09 00:50:25;;;;;;;32.77;24.90;;;14.60;99.90;;;;;;5033708;28;20485;-74
2023/05/09 00:52:52;;;;;;;35.90;26.60;;;14.50;99.90;;;;;;5049765;28;20465;-74
2023/05/09 00:55:19;;;;;;;38.93;25.07;;;14.50;99.90;;;;;;5038044;28;20453;-74
2023/05/09 00:57:45;;;;;;;35.33;26.00;;;14.40;99.90;;;;;;5030458;28;20552;-74
2023/05/09 01:00:13;;;;;;;35.83;25.70;;;14.40;99.90;;;;;;5036714;28;20822;-73
2023/05/09 01:02:42;;;;;;;49.37;28.17;;;14.30;99.90;;;;;;5031657;28;20457;-73
2023/05/09 01:05:09;;;;;;;40.73;26.37;;;14.30;99.90;;;;;;5036789;28;20526;-74
2023/05/09 01:07:43;;;;;;;54.13;27.80;;;14.20;99.90;;;;;;5037356;28;20457;-74
2023/05/09 01:10:18;;;;;;;39.97;26.97;;;14.20;99.90;;;;;;5036191;28;20477;-74
2023/05/09 01:12:53;;;;;;;42.00;26.93;;;14.20;99.90;;;;;;5039057;28;20577;-74
2023/05/09 01:15:27;;;;;;;37.73;26.50;;;14.20;99.90;;;;;;5038769;28;20449;-73
2023/05/09 01:17:59;;;;;;;38.13;26.87;;;14.20;99.90;;;;;;5038489;28;20628;-73
2023/05/09 01:20:33;;;;;;;37.70;26.97;;;14.20;99.90;;;;;;5042903;28;20481;-73
2023/05/09 01:23:12;;;;;;;41.40;27.47;;;14.30;99.90;;;;;;5035418;28;20449;-73
2023/05/09 01:25:55;;;;;;;36.90;25.80;;;14.30;99.90;;;;;;5034639;28;20540;-74
2023/05/09 01:28:36;;;;;;;41.97;26.47;;;14.30;99.90;;;;;;5030469;28;20445;-73
2023/05/09 01:31:07;;;;;;;44.50;27.87;;;14.30;99.90;;;;;;5038256;28;20483;-74
2023/05/09 01:33:38;;;;;;;38.23;26.77;;;14.30;99.90;;;;;;5038687;28;20457;-74
2023/05/09 01:36:12;;;;;;;36.43;25.90;;;14.40;99.90;;;;;;5030071;28;20512;-74
2023/05/09 01:38:40;;;;;;;36.10;27.10;;;14.40;99.90;;;;;;5030372;28;20489;-73
2023/05/09 01:41:09;;;;;;;39.37;26.27;;;14.30;99.90;;;;;;5038797;28;20473;-73
2023/05/09 01:43:38;;;;;;;36.80;26.43;;;14.40;99.90;;;;;;5040970;28;20456;-74
2023/05/09 01:46:07;;;;;;;38.43;27.00;;;14.40;99.90;;;;;;5039710;28;20945;-73
2023/05/09 01:48:35;;;;;;;34.57;25.60;;;14.30;99.90;;;;;;5030572;28;20449;-74
2023/05/09 01:51:04;;;;;;;36.37;26.27;;;14.30;99.90;;;;;;5038232;28;20498;-74
2023/05/09 01:53:32;;;;;;;36.40;26.03;;;14.30;99.90;;;;;;5037801;28;20567;-74
2023/05/09 01:55:59;;;;;;;36.80;26.33;;;14.30;99.90;;;;;;5041906;28;20456;-74
2023/05/09 01:58:27;;;;;;;33.97;25.00;;;14.30;99.90;;;;;;5033863;28;20913;-74
2023/05/09 02:00:54;;;;;;;39.00;25.57;;;14.30;99.90;;;;;;5040871;28;20886;-74
2023/05/09 02:03:23;;;;;;;35.63;25.40;;;14.30;99.90;;;;;;5035825;28;20449;-74
2023/05/09 02:05:50;;;;;;;38.27;27.03;;;14.30;99.90;;;;;;5051708;28;20940;-74
2023/05/09 02:08:20;;;;;;;38.97;26.07;;;14.30;99.90;;;;;;5041776;28;20454;-73
2023/05/09 02:10:48;;;;;;;40.47;26.60;;;14.30;99.90;;;;;;5042556;28;20484;-74
2023/05/09 02:13:15;;;;;;;36.27;25.23;;;14.30;99.90;;;;;;5034001;28;20465;-73
2023/05/09 02:15:42;;;;;;;36.93;25.10;;;14.30;99.90;;;;;;5033744;28;20454;-73
2023/05/09 02:18:09;;;;;;;35.80;25.07;;;14.40;99.90;;;;;;5041243;28;20853;-74
2023/05/09 02:20:37;;;;;;;41.87;27.57;;;14.40;99.90;;;;;;5040899;28;20447;-73
2023/05/09 02:23:04;;;;;;;36.17;26.27;;;14.30;99.90;;;;;;5043279;28;20478;-74
2023/05/09 02:25:32;;;;;;;38.27;27.70;;;14.30;99.90;;;;;;5033718;28;20439;-73
2023/05/09 02:28:00;;;;;;;37.47;27.73;;;14.30;99.90;;;;;;5050184;28;20504;-73
2023/05/09 02:30:30;;;;;;;41.70;27.63;;;14.30;99.90;;;;;;5040958;28;20961;-74
2023/05/09 02:33:00;;;;;;;39.17;27.40;;;14.30;99.90;;;;;;5033429;28;20476;-73
2023/05/09 02:35:28;;;;;;;35.60;25.13;;;14.20;99.90;;;;;;5037763;28;20453;-74
2023/05/09 02:37:58;;;;;;;36.90;26.00;;;14.20;99.90;;;;;;5041173;28;20484;-74
2023/05/09 02:40:27;;;;;;;40.67;26.70;;;14.20;99.90;;;;;;5033307;28;20522;-74
2023/05/09 02:42:54;;;;;;;36.57;25.47;;;14.20;99.90;;;;;;5040336;28;20862;-74
2023/05/09 02:45:20;;;;;;;37.77;27.50;;;14.20;99.90;;;;;;5038531;28;20469;-73
2023/05/09 02:47:47;;;;;;;38.57;27.57;;;14.10;99.90;;;;;;5033040;28;20507;-73
2023/05/09 02:50:14;;;;;;;40.03;27.87;;;14.10;99.90;;;;;;5033054;28;20477;-73
2023/05/09 02:52:40;;;;;;;37.30;26.80;;;14.10;99.90;;;;;;5043072;28;20932;-74
2023/05/09 02:55:09;;;;;;;37.93;26.90;;;14.10;99.90;;;;;;5033651;28;20460;-73
2023/05/09 02:57:36;;;;;;;38.60;28.33;;;14.00;99.90;;;;;;5035067;28;20488;-74
2023/05/09 03:00:07;;;;;;;41.80;26.47;;;14.00;99.90;;;;;;5042322;28;20476;-74
2023/05/09 03:02:34;;;;;;;36.23;25.60;;;14.00;99.90;;;;;;5039770;28;20446;-74
2023/05/09 03:05:01;;;;;;;36.27;27.10;;;13.90;99.90;;;;;;5039990;28;20452;-74
2023/05/09 03:07:27;;;;;;;39.60;26.03;;;13.90;99.90;;;;;;5034032;28;20454;-74
2023/05/09 03:09:54;;;;;;;34.80;24.73;;;13.90;99.90;;;;;;5043387;28;20531;-73
2023/05/09 03:12:22;;;;;;;43.57;26.23;;;13.80;99.90;;;;;;5037955;28;20461;-73
2023/05/09 03:14:48;;;;;;;38.87;26.33;;;13.80;99.90;;;;;;5039300;28;20518;-74
2023/05/09 03:17:16;;;;;;;46.73;26.57;;;13.70;99.90;;;;;;5042097;28;20449;-74
2023/05/09 03:19:42;;;;;;;39.57;28.40;;;13.70;99.90;;;;;;5032538;28;20485;-74
2023/05/09 03:22:10;;;;;;;44.73;29.23;;;13.70;99.90;;;;;;5032269;28;20520;-73
2023/05/09 03:24:36;;;;;;;39.70;28.50;;;13.60;99.90;;;;;;5035916;28;20874;-73
2023/05/09 03:27:03;;;;;;;46.83;27.40;;;13.60;99.90;;;;;;5043600;28;20457;-74
2023/05/09 03:29:32;;;;;;;38.10;27.10;;;13.60;99.90;;;;;;5032498;28;20520;-73
2023/05/09 03:31:59;;;;;;;43.20;26.90;;;13.50;99.90;;;;;;5032143;28;20457;-74
2023/05/09 03:34:25;;;;;;;38.93;26.10;;;13.50;99.90;;;;;;5044003;28;20454;-74
2023/05/09 03:36:52;;;;;;;34.43;25.00;;;13.40;99.90;;;;;;5038878;28;20457;-74
2023/05/09 03:39:18;;;;;;;39.37;25.07;;;13.40;99.90;;;;;;5037847;28;20484;-73
2023/05/09 03:41:45;;;;;;;36.70;25.33;;;13.40;99.90;;;;;;5033812;28;20494;-74
2023/05/09 03:44:12;;;;;;;37.90;26.00;;;13.40;99.90;;;;;;5034193;28;20523;-74
2023/05/09 03:46:39;;;;;;;32.47;24.93;;;13.40;99.90;;;;;;5037791;28;20507;-74
2023/05/09 03:49:06;;;;;;;39.90;27.50;;;13.50;99.90;;;;;;5034730;28;21050;-74
2023/05/09 03:51:33;;;;;;;39.30;27.43;;;13.50;99.90;;;;;;5031816;28;20474;-74
2023/05/09 03:53:59;;;;;;;39.83;26.40;;;13.60;99.90;;;;;;5042592;28;20453;-71
2023/05/09 03:56:26;;;;;;;37.60;27.17;;;13.60;99.90;;;;;;5038630;28;20496;-71
2023/05/09 03:58:53;;;;;;;48.93;29.50;;;13.70;99.90;;;;;;5031647;28;20489;-71
2023/05/09 04:01:19;;;;;;;37.40;25.37;;;13.70;99.90;;;;;;5036152;28;20536;-72
2023/05/09 04:03:48;;;;;;;45.40;28.07;;;13.80;99.90;;;;;;5031347;28;20454;-71
2023/05/09 04:06:15;;;;;;;43.37;28.97;;;13.80;99.90;;;;;;5044963;28;21030;-71
2023/05/09 04:08:42;;;;;;;40.70;27.37;;;13.70;99.90;;;;;;5031574;28;20801;-71
2023/05/09 04:11:08;;;;;;;38.47;27.93;;;13.70;99.90;;;;;;5032963;28;20473;-70
2023/05/09 04:13:35;;;;;;;43.13;27.93;;;13.70;99.90;;;;;;5031601;28;20464;-71
2023/05/09 04:16:02;;;;;;;39.47;27.70;;;13.70;99.90;;;;;;5031207;28;20938;-71
2023/05/09 04:18:29;;;;;;;44.70;29.90;;;13.80;99.90;;;;;;5030725;28;20490;-71
2023/05/09 04:20:57;;;;;;;41.03;27.00;;;13.80;99.90;;;;;;5045490;28;20571;-71
2023/05/09 04:23:24;;;;;;;42.70;29.23;;;13.70;99.90;;;;;;5031708;28;20450;-71
2023/05/09 04:25:52;;;;;;;41.53;29.40;;;13.70;99.90;;;;;;5031157;28;20462;-71
2023/05/09 04:28:19;;;;;;;40.57;27.57;;;13.70;99.90;;;;;;5037465;28;20469;-70
2023/05/09 04:30:45;;;;;;;41.73;28.03;;;13.60;99.90;;;;;;5030980;28;20474;-71
2023/05/09 04:33:12;;;;;;;42.20;29.50;;;13.60;99.90;;;;;;5034842;28;20950;-71
2023/05/09 04:35:40;;;;;;;42.50;27.37;;;13.60;99.90;;;;;;5036219;28;20457;-71
2023/05/09 04:38:08;;;;;;;39.20;27.30;;;13.70;99.90;;;;;;5030474;28;20461;-71
2023/05/09 04:40:35;;;;;;;39.93;26.97;;;13.70;99.90;;;;;;5034604;28;20482;-71
2023/05/09 04:43:02;;;;;;;42.37;27.80;;;13.60;99.90;;;;;;5034527;28;20490;-72
2023/05/09 04:45:28;;;;;;;38.50;26.17;;;13.70;99.90;;;;;;5030775;28;20458;-71
2023/05/09 04:47:55;;;;;;;38.00;26.20;;;13.60;99.90;;;;;;5030424;28;20458;-71
2023/05/09 04:50:22;;;;;;;42.87;27.57;;;13.70;99.90;;;;;;5032018;28;20473;-72
2023/05/09 04:52:48;;;;;;;35.47;25.37;;;13.70;99.90;;;;;;5038140;28;20449;-71
2023/05/09 04:55:16;;;;;;;35.83;25.90;;;13.70;99.90;;;;;;5029055;28;20880;-72
2023/05/09 04:57:43;;;;;;;44.80;27.00;;;13.70;99.90;;;;;;5030214;28;20448;-71
2023/05/09 05:00:11;;;;;;;41.13;27.60;;;13.70;99.90;;;;;;5046717;28;21003;-71
2023/05/09 05:02:38;;;;;;;42.50;27.63;;;13.70;99.90;;;;;;5030539;28;20458;-71
2023/05/09 05:05:05;;;;;;;37.60;24.90;;;13.80;99.90;;;;;;5038359;28;20452;-72
2023/05/09 05:07:32;;;;;;;39.47;27.17;;;13.80;99.90;;;;;;5030863;28;20512;-71
2023/05/09 05:09:58;;;;;;;38.60;25.93;;;13.80;99.90;;;;;;5030178;28;20469;-72
2023/05/09 05:12:26;;;;;;;39.27;26.33;;;13.80;99.90;;;;;;5030127;28;20997;-72
2023/05/09 05:14:53;;;;;;;39.33;25.83;;;14.00;99.90;;;;;;5029453;28;20453;-71
2023/05/09 05:17:20;;;;;;;37.20;27.20;;;14.10;99.90;;;;;;5030367;28;20453;-71
2023/05/09 05:19:47;;;;;;;43.40;29.00;;;14.30;99.90;;;;;;5030349;28;20485;-71
2023/05/09 05:22:13;;;;;;;42.30;26.80;;;14.40;99.90;;;;;;5029817;28;20432;-71
2023/05/09 05:24:40;;;;;;;40.33;26.57;;;14.60;99.90;;;;;;5029939;28;20458;-71
2023/05/09 05:27:07;;;;;;;43.00;26.60;;;14.80;99.90;;;;;;5030248;28;20457;-71
2023/05/09 05:29:35;;;;;;;36.03;26.17;;;14.90;99.90;;;;;;5030406;28;20707;-72
2023/05/09 05:32:01;;;;;;;37.50;24.23;;;15.00;99.90;;;;;;5030320;28;21004;-71
2023/05/09 05:34:28;;;;;;;38.63;24.57;;;15.10;99.90;;;;;;5029985;28;20511;-71
2023/05/09 05:36:54;;;;;;;39.23;26.67;;;15.20;99.90;;;;;;5030028;28;20887;-72
2023/05/09 05:39:21;;;;;;;41.23;26.17;;;15.20;99.90;;;;;;5038081;28;20990;-71
2023/05/09 05:41:48;;;;;;;41.77;27.03;;;15.20;99.90;;;;;;5032192;28;20482;-71
2023/05/09 05:44:14;;;;;;;41.27;26.80;;;15.20;99.90;;;;;;5032701;28;20484;-71
2023/05/09 05:46:42;;;;;;;39.33;27.20;;;15.20;99.90;;;;;;5034403;28;20502;-72
2023/05/09 05:49:09;;;;;;;38.93;26.30;;;15.30;99.90;;;;;;5033383;28;20446;-70
2023/05/09 05:51:36;;;;;;;40.50;27.53;;;15.30;99.90;;;;;;5030191;28;20470;-71
2023/05/09 05:54:02;;;;;;;35.80;25.07;;;15.40;99.90;;;;;;5030117;28;20992;-71
2023/05/09 05:56:29;;;;;;;35.20;23.50;;;15.40;99.90;;;;;;5029685;28;21023;-72
2023/05/09 05:58:56;;;;;;;33.80;23.97;;;15.30;99.90;;;;;;5029723;28;20568;-71
2023/05/09 06:01:22;;;;;;;34.20;23.47;;;15.30;99.90;;;;;;5031821;28;20477;-72
2023/05/09 06:03:53;;;;;;;31.07;22.67;;;15.30;99.90;;;;;;5035974;28;20507;-72
2023/05/09 06:06:20;;;;;;;31.60;22.83;;;15.30;99.90;;;;;;5030147;28;20462;-72
2023/05/09 06:08:48;;;;;;;30.77;22.53;;;15.30;99.90;;;;;;5030482;28;20454;-72
2023/05/09 06:11:15;;;;;;;31.80;22.10;;;15.30;99.90;;;;;;5030044;28;20527;-72
2023/05/09 06:13:41;;;;;;;32.00;22.40;;;15.30;99.90;;;;;;5029858;28;20507;-72
2023/05/09 06:16:08;;;;;;;32.73;23.23;;;15.30;99.90;;;;;;5029831;28;20454;-72
2023/05/09 06:18:36;;;;;;;29.70;21.77;;;15.50;99.90;;;;;;5029412;28;20449;-72
2023/05/09 06:21:04;;;;;;;28.80;21.90;;;15.60;99.90;;;;;;5045133;28;20469;-71
2023/05/09 06:23:31;;;;;;;31.87;21.37;;;15.70;99.90;;;;;;5038658;28;20457;-72
2023/05/09 06:25:58;;;;;;;27.40;20.50;;;15.70;99.90;;;;;;5029847;28;20457;-71
2023/05/09 06:28:25;;;;;;;31.63;21.63;;;15.60;99.90;;;;;;5037643;28;20454;-72
2023/05/09 06:30:52;;;;;;;35.97;24.20;;;15.50;99.90;;;;;;5038157;28;20456;-72
2023/05/09 06:33:18;;;;;;;31.70;22.70;;;15.50;99.90;;;;;;5038028;28;20503;-72
2023/05/09 06:35:45;;;;;;;33.60;23.87;;;15.40;99.90;;;;;;5030276;28;20457;-71
2023/05/09 06:38:13;;;;;;;31.67;22.40;;;15.50;99.90;;;;;;5033005;28;20876;-71
2023/05/09 06:40:40;;;;;;;32.10;21.80;;;15.50;99.90;;;;;;5032841;28;20504;-71
2023/05/09 06:43:07;;;;;;;37.97;24.77;;;15.50;99.90;;;;;;5038221;28;20548;-71
2023/05/09 06:45:34;;;;;;;34.60;24.03;;;15.50;99.90;;;;;;5033046;28;20508;-71
2023/05/09 06:48:00;;;;;;;37.30;24.40;;;15.50;99.90;;;;;;5033152;28;20460;-71
2023/05/09 06:50:27;;;;;;;34.33;23.27;;;15.50;99.90;;;;;;5032810;28;20466;-72
2023/05/09 06:52:53;;;;;;;29.50;23.10;;;15.60;99.90;;;;;;5033063;28;20511;-71
2023/05/09 06:55:21;;;;;;;32.43;22.93;;;15.70;99.90;;;;;;5040931;28;20841;-72
2023/05/09 06:57:48;;;;;;;36.47;23.27;;;15.80;99.90;;;;;;5032821;28;20458;-71
2023/05/09 07:00:16;;;;;;;33.67;24.90;;;15.90;99.90;;;;;;5033496;28;20907;-72
2023/05/09 07:02:42;;;;;;;31.17;23.57;;;15.90;99.90;;;;;;5033083;28;20450;-72
2023/05/09 07:05:09;;;;;;;34.07;21.50;;;15.90;99.90;;;;;;5040950;28;20941;-72
2023/05/09 07:07:36;;;;;;;30.00;22.50;;;16.00;99.90;;;;;;5032544;28;20428;-72
2023/05/09 07:10:04;;;;;;;29.60;21.13;;;16.20;99.90;;;;;;5031861;28;20516;-72
2023/05/09 07:12:32;;;;;;;29.33;20.87;;;16.30;99.90;;;;;;5032615;28;20545;-72
2023/05/09 07:14:59;;;;;;;30.03;21.60;;;16.40;99.90;;;;;;5032439;28;20523;-71
2023/05/09 07:17:25;;;;;;;26.70;20.20;;;16.60;99.90;;;;;;5032303;28;20510;-71
2023/05/09 07:19:52;;;;;;;30.43;23.03;;;16.80;99.90;;;;;;5036940;28;20450;-71
2023/05/09 07:22:19;;;;;;;31.97;21.90;;;16.90;99.90;;;;;;5034165;28;20457;-72
2023/05/09 07:24:45;;;;;;;31.60;22.90;;;16.90;99.90;;;;;;5031986;28;20461;-73
2023/05/09 07:27:12;;;;;;;33.50;21.63;;;16.80;99.90;;;;;;5032168;28;20436;-72
2023/05/09 07:29:40;;;;;;;31.00;21.97;;;16.70;99.90;;;;;;5031876;28;20450;-72
2023/05/09 07:32:07;;;;;;;29.70;21.50;;;16.60;99.90;;;;;;5032252;28;20458;-71
2023/05/09 07:34:33;;;;;;;29.57;21.60;;;16.60;99.90;;;;;;5031584;28;20960;-71
2023/05/09 07:37:00;;;;;;;29.87;20.63;;;16.80;99.90;;;;;;5038139;28;20427;-71
2023/05/09 07:39:27;;;;;;;28.67;21.73;;;16.70;99.90;;;;;;5041035;28;20499;-71
2023/05/09 07:41:53;;;;;;;32.23;21.50;;;16.60;99.90;;;;;;5034135;28;20477;-71
2023/05/09 07:44:20;;;;;;;29.80;21.50;;;16.60;99.90;;;;;;5034064;28;20512;-71
2023/05/09 07:46:48;;;;;;;29.80;21.50;;;16.60;99.90;;;;;;5039268;28;20463;-71
2023/05/09 07:49:15;;;;;;;32.70;21.67;;;16.60;99.90;;;;;;5030760;28;20458;-72
2023/05/09 07:51:41;;;;;;;34.30;22.50;;;16.70;99.90;;;;;;5031606;28;20531;-72
2023/05/09 07:54:08;;;;;;;32.10;22.57;;;16.70;99.90;;;;;;5039712;28;21003;-72
2023/05/09 07:56:35;;;;;;;27.80;21.63;;;16.70;99.90;;;;;;5031370;28;20456;-72
2023/05/09 07:59:02;;;;;;;31.23;22.20;;;16.70;99.90;;;;;;5031626;28;20440;-72
2023/05/09 08:01:28;;;;;;;28.27;22.40;;;16.70;99.90;;;;;;5032480;28;20476;-71
2023/05/09 08:03:56;;;;;;;31.13;21.97;;;16.80;99.90;;;;;;5036978;28;20503;-71
2023/05/09 08:06:23;;;;;;;27.30;20.80;;;16.80;99.90;;;;;;5033571;28;20495;-72
2023/05/09 08:08:49;;;;;;;28.43;20.30;;;16.90;99.90;;;;;;5031179;28;20495;-71
2023/05/09 08:11:16;;;;;;;35.53;23.03;;;17.10;99.90;;;;;;5038926;28;20995;-71
2023/05/09 08:13:43;;;;;;;26.27;20.30;;;17.30;99.90;;;;;;5031603;28;20507;-71
2023/05/09 08:16:10;;;;;;;54.53;23.00;;;17.50;99.90;;;;;;5030799;28;20453;-72
2023/05/09 08:18:36;;;;;;;27.70;20.97;;;17.70;99.90;;;;;;5031106;28;20439;-72
2023/05/09 08:21:05;;;;;;;28.30;20.53;;;17.70;99.90;;;;;;5037414;28;20462;-71
2023/05/09 08:23:32;;;;;;;30.27;21.77;;;17.60;99.90;;;;;;5031899;28;20984;-71
2023/05/09 08:25:58;;;;;;;30.30;21.97;;;17.70;99.90;;;;;;5030768;28;20442;-72
2023/05/09 08:28:27;;;;;;;30.43;22.27;;;17.70;99.90;;;;;;5030656;28;20424;-71
2023/05/09 08:30:54;;;;;;;33.73;22.67;;;17.60;99.90;;;;;;5031404;28;20469;-72
2023/05/09 08:33:20;;;;;;;29.40;20.23;;;17.60;99.90;;;;;;5039502;28;20502;-72
2023/05/09 08:35:50;;;;;;;28.77;22.33;;;17.60;99.90;;;;;;5039367;28;20506;-71
2023/05/09 08:38:18;;;;;;;31.67;22.60;;;17.40;99.90;;;;;;5031044;28;20454;-70
2023/05/09 08:40:45;;;;;;;38.73;22.40;;;17.30;99.90;;;;;;5038637;28;20489;-71
2023/05/09 08:43:13;;;;;;;33.37;21.83;;;17.30;99.90;;;;;;5036837;28;20457;-70
2023/05/09 08:45:45;;;;;;;28.33;21.47;;;17.30;99.90;;;;;;5030738;28;20453;-71
2023/05/09 08:48:13;;;;;;;32.03;21.50;;;17.40;99.90;;;;;;5030640;28;20871;-71
2023/05/09 08:50:40;;;;;;;33.07;22.40;;;17.30;99.90;;;;;;5030554;28;20519;-71
2023/05/09 08:53:07;;;;;;;33.13;23.40;;;17.30;99.90;;;;;;5031015;28;20436;-71
2023/05/09 08:55:35;;;;;;;34.63;24.30;;;17.20;99.90;;;;;;5038752;28;20444;-71
2023/05/09 08:58:03;;;;;;;34.67;23.53;;;17.20;99.90;;;;;;5029475;28;20512;-71
2023/05/09 09:00:29;;;;;;;30.03;23.20;;;17.00;99.90;;;;;;5031755;28;20552;-71
2023/05/09 09:02:58;;;;;;;33.60;24.23;;;17.00;99.90;;;;;;5030798;28;20447;-71
2023/05/09 09:05:25;;;;;;;34.10;24.33;;;17.00;99.90;;;;;;5031843;28;20834;-71
2023/05/09 09:07:52;;;;;;;33.50;25.47;;;17.00;99.90;;;;;;5038756;28;20445;-71
2023/05/09 09:10:21;;;;;;;37.60;25.67;;;17.10;99.90;;;;;;5030200;28;20466;-71
2023/05/09 09:12:49;;;;;;;34.83;23.40;;;17.00;99.90;;;;;;5030597;28;20869;-72
2023/05/09 09:15:17;;;;;;;34.50;24.37;;;17.00;99.90;;;;;;5030773;28;20457;-71
2023/05/09 09:17:47;;;;;;;31.10;23.13;;;16.90;99.90;;;;;;5033915;28;20499;-71
2023/05/09 09:20:16;;;;;;;34.33;23.43;;;16.90;99.90;;;;;;5034091;28;21008;-71
2023/05/09 09:22:43;;;;;;;30.97;23.40;;;16.90;99.90;;;;;;5038553;28;20424;-72
2023/05/09 09:25:10;;;;;;;31.10;22.67;;;16.90;99.90;;;;;;5030461;28;20493;-72
2023/05/09 09:27:37;;;;;;;35.33;24.73;;;16.90;99.90;;;;;;5038141;28;20449;-72
2023/05/09 09:30:10;;;;;;;42.17;25.20;;;16.90;99.90;;;;;;5030885;28;20479;-72
2023/05/09 09:32:38;;;;;;;45.03;26.47;;;17.00;99.90;;;;;;5029884;28;20470;-71
2023/05/09 09:35:06;;;;;;;38.97;24.30;;;17.20;99.90;;;;;;5030420;28;20460;-72
2023/05/09 09:37:34;;;;;;;34.47;25.17;;;17.40;99.90;;;;;;5030030;28;20503;-71
2023/05/09 09:40:01;;;;;;;39.90;24.43;;;17.50;99.90;;;;;;5035845;28;20484;-70
2023/05/09 09:42:39;;;;;;;30.97;23.10;;;17.50;99.90;;;;;;5038856;28;20441;-71
2023/05/09 09:45:11;;;;;;;40.90;23.27;;;17.40;99.90;;;;;;5030033;28;20438;-71
2023/05/09 09:47:38;;;;;;;32.10;22.40;;;17.40;99.90;;;;;;5038298;28;20428;-71
2023/05/09 09:50:12;;;;;;;34.13;23.83;;;17.30;99.90;;;;;;5030139;28;20515;-71
2023/05/09 09:52:43;;;;;;;37.80;24.27;;;17.30;99.90;;;;;;5030094;28;20504;-72
2023/05/09 09:55:10;;;;;;;31.90;22.60;;;17.30;99.90;;;;;;5030088;28;20457;-72
2023/05/09 09:57:40;;;;;;;33.03;23.13;;;17.40;99.90;;;;;;5029328;28;20980;-72
2023/05/09 10:00:10;;;;;;;35.30;25.50;;;17.40;99.90;;;;;;5031822;28;20485;-72
2023/05/09 10:02:46;;;;;;;40.33;24.80;;;17.50;99.90;;;;;;5029963;28;20436;-72
2023/05/09 10:05:18;;;;;;;38.30;23.57;;;17.40;99.90;;;;;;5031829;28;20515;-71
2023/05/09 10:07:45;;;;;;;33.17;23.43;;;17.40;99.90;;;;;;5029678;28;20449;-72
2023/05/09 10:10:12;;;;;;;33.63;23.83;;;17.30;99.90;;;;;;5031743;28;20473;-72
2023/05/09 10:12:40;;;;;;;35.13;25.07;;;17.30;99.90;;;;;;5033715;28;20462;-71
2023/05/09 10:15:12;;;;;;;33.33;23.97;;;17.30;99.90;;;;;;5033926;28;20884;-71
2023/05/09 10:17:38;;;;;;;33.80;24.60;;;17.30;99.90;;;;;;5035599;28;20466;-72
2023/05/09 10:20:07;;;;;;;33.80;23.77;;;17.40;99.90;;;;;;5038766;28;21071;-72
2023/05/09 10:22:35;;;;;;;36.33;23.07;;;17.40;99.90;;;;;;5033477;28;20431;-72
2023/05/09 10:25:05;;;;;;;33.10;23.67;;;17.60;99.90;;;;;;5033620;28;20511;-72
2023/05/09 10:27:35;;;;;;;38.20;22.60;;;17.60;99.90;;;;;;5033198;28;20450;-72
2023/05/09 10:30:05;;;;;;;42.40;24.00;;;17.50;99.90;;;;;;5033920;28;20443;-71
2023/05/09 10:32:43;;;;;;;33.60;23.43;;;17.50;99.90;;;;;;5033068;28;20941;-71
2023/05/09 10:35:12;;;;;;;31.57;22.67;;;17.50;99.90;;;;;;5033551;28;20449;-71
2023/05/09 10:37:39;;;;;;;32.10;22.80;;;17.50;99.90;;;;;;5041355;28;20481;-71
2023/05/09 10:40:07;;;;;;;37.00;22.30;;;17.50;99.90;;;;;;5033293;28;20563;-71
2023/05/09 10:42:35;;;;;;;33.30;23.60;;;17.60;99.90;;;;;;5039974;28;20454;-70
2023/05/09 10:45:02;;;;;;;32.20;22.97;;;17.60;99.90;;;;;;5032918;28;20904;-71
2023/05/09 10:47:30;;;;;;;32.30;22.67;;;17.60;99.90;;;;;;5032971;28;20461;-71
2023/05/09 10:49:59;;;;;;;29.73;21.90;;;17.60;99.90;;;;;;5033103;28;20847;-71
2023/05/09 10:52:31;;;;;;;31.20;21.80;;;17.60;99.90;;;;;;5032995;28;20463;-72
2023/05/09 10:55:02;;;;;;;31.77;23.37;;;17.50;99.90;;;;;;5033128;28;20445;-71
2023/05/09 10:57:30;;;;;;;31.73;20.77;;;17.50;99.90;;;;;;5032894;28;20898;-71
2023/05/09 10:59:57;;;;;;;32.30;21.50;;;17.50;99.90;;;;;;5042337;28;20521;-71
2023/05/09 11:02:28;;;;;;;27.93;20.50;;;17.60;99.90;;;;;;5032753;28;20442;-69
2023/05/09 11:05:18;;;;;;;31.63;21.10;;;17.70;99.90;;;;;;5035432;28;20544;-71
2023/05/09 11:07:45;;;;;;;30.67;22.10;;;17.80;99.90;;;;;;5032532;28;20504;-71
2023/05/09 11:10:16;;;;;;;27.70;21.17;;;17.80;99.90;;;;;;5032591;28;20504;-70
2023/05/09 11:12:56;;;;;;;32.80;22.93;;;17.80;99.90;;;;;;5032817;28;20457;-71
2023/05/09 11:15:23;;;;;;;33.77;22.37;;;17.70;99.90;;;;;;5032689;28;20460;-71
2023/05/09 11:18:04;;;;;;;31.10;22.07;;;17.70;99.90;;;;;;5032343;28;20478;-71
2023/05/09 11:20:33;;;;;;;28.60;21.00;;;17.70;99.90;;;;;;5031798;28;20595;-71
2023/05/09 11:23:03;;;;;;;33.17;22.17;;;17.80;99.90;;;;;;5031770;28;20470;-71
2023/05/09 11:25:30;;;;;;;29.17;22.00;;;17.80;99.90;;;;;;5032750;28;20428;-72
2023/05/09 11:28:00;;;;;;;30.40;21.23;;;17.80;99.90;;;;;;5032182;28;20494;-72
2023/05/09 11:30:36;;;;;;;32.00;22.80;;;17.80;99.90;;;;;;5032023;28;20476;-72
2023/05/09 11:33:05;;;;;;;32.47;21.37;;;17.70;99.90;;;;;;5032487;28;20432;-71
2023/05/09 11:35:36;;;;;;;35.37;20.63;;;17.80;99.90;;;;;;5032315;28;20424;-71
2023/05/09 11:38:05;;;;;;;27.47;21.17;;;17.90;99.90;;;;;;5032297;28;20457;-70
2023/05/09 11:40:33;;;;;;;36.47;20.40;;;17.90;99.90;;;;;;5031921;28;20459;-71
2023/05/09 11:43:01;;;;;;;36.77;21.40;;;18.00;99.90;;;;;;5039006;28;20463;-71
2023/05/09 11:45:30;;;;;;;28.83;20.07;;;18.10;99.90;;;;;;5031966;28;20990;-71
2023/05/09 11:47:57;;;;;;;30.67;21.27;;;18.30;99.90;;;;;;5032120;28;20454;-72
2023/05/09 11:50:24;;;;;;;34.53;20.97;;;18.30;99.90;;;;;;5032217;28;20447;-71
2023/05/09 11:52:53;;;;;;;27.97;20.97;;;18.40;99.90;;;;;;5031809;28;20846;-71
2023/05/09 11:55:21;;;;;;;26.13;19.70;;;18.50;99.90;;;;;;5031942;28;20436;-72
2023/05/09 11:57:50;;;;;;;28.47;20.43;;;18.70;99.90;;;;;;5031672;28;20458;-71
2023/05/09 12:00:19;;;;;;;29.03;20.90;;;18.70;99.90;;;;;;5034617;28;20447;-72
2023/05/09 12:02:46;;;;;;;27.70;19.50;;;18.80;99.90;;;;;;5031896;28;20559;-72
2023/05/09 12:05:14;;;;;;;30.83;19.73;;;18.90;99.90;;;;;;5034650;28;20423;-72
2023/05/09 12:07:42;;;;;;;26.43;19.00;;;19.00;99.90;;;;;;5031407;28;20449;-72
2023/05/09 12:10:11;;;;;;;25.60;19.43;;;19.00;99.90;;;;;;5032119;28;20447;-72
2023/05/09 12:12:43;;;;;;;27.33;18.90;;;19.00;99.90;;;;;;5031556;28;20915;-71
2023/05/09 12:15:12;;;;;;;25.37;18.90;;;19.10;99.90;;;;;;5039725;28;20482;-72
2023/05/09 12:17:39;;;;;;;22.93;17.83;;;19.20;99.90;;;;;;5031149;28;20436;-72
2023/05/09 12:20:07;;;;;;;27.90;18.13;;;19.20;99.90;;;;;;5031061;28;20436;-72
2023/05/09 12:22:36;;;;;;;23.43;17.30;;;19.10;99.90;;;;;;5031191;28;20500;-72
2023/05/09 12:25:06;;;;;;;21.80;16.80;;;19.00;99.90;;;;;;5031309;28;21003;-71
2023/05/09 12:27:35;;;;;;;25.93;17.60;;;19.00;99.90;;;;;;5030923;28;20425;-71
2023/05/09 12:30:02;;;;;;;23.30;15.77;;;18.90;99.90;;;;;;5031173;28;20473;-72
2023/05/09 12:32:31;;;;;;;25.13;18.43;;;18.80;99.90;;;;;;5038778;28;20877;-71